createdAt,value
2024-02-08T00:02:21.164Z,6.88
2024-02-08T00:04:51.297Z,10.07
2024-02-08T00:07:19.614Z,7.22
2024-02-08T00:09:47.784Z,4.18
2024-02-08T00:12:17.688Z,11.30
2024-02-08T00:14:46.032Z,6.70
2024-02-08T00:17:15.637Z,7.75
2024-02-08T00:19:43.852Z,15.52
2024-02-08T00:22:12.126Z,7.60
2024-02-08T00:24:40.236Z,9.77
2024-02-08T00:27:08.420Z,11.55
2024-02-08T00:29:36.574Z,11.43
2024-02-08T00:32:04.755Z,9.00
2024-02-08T00:34:34.392Z,7.32
2024-02-08T00:37:02.644Z,6.28
2024-02-08T00:39:31.378Z,11.00
2024-02-08T00:42:02.203Z,10.23
2024-02-08T00:44:31.717Z,13.85
2024-02-08T00:46:59.929Z,22.63
2024-02-08T00:49:28.150Z,31.95
2024-02-08T00:51:57.625Z,39.33
2024-02-08T00:54:25.766Z,18.25
2024-02-08T00:56:54.566Z,14.75
2024-02-08T00:59:24.121Z,12.57
2024-02-08T01:01:53.164Z,11.85
2024-02-08T01:04:22.682Z,20.17
2024-02-08T01:06:51.070Z,13.57
2024-02-08T01:09:20.611Z,13.23
2024-02-08T01:11:49.202Z,9.00
2024-02-08T01:14:22.851Z,10.43
2024-02-08T01:16:52.459Z,9.90
2024-02-08T01:19:23.376Z,9.43
2024-02-08T01:21:51.837Z,9.27
2024-02-08T01:24:21.566Z,6.22
2024-02-08T01:26:50.303Z,7.82
2024-02-08T01:29:19.583Z,9.98
2024-02-08T01:31:47.786Z,9.93
2024-02-08T01:34:16.131Z,14.77
2024-02-08T01:36:44.314Z,13.75
2024-02-08T01:39:14.727Z,15.68
2024-02-08T01:41:45.086Z,12.80
2024-02-08T01:44:14.695Z,10.60
2024-02-08T01:46:43.285Z,12.00
2024-02-08T01:49:17.008Z,9.50
2024-02-08T01:51:45.862Z,8.60
2024-02-08T01:54:16.444Z,9.95
2024-02-08T01:56:46.048Z,14.30
2024-02-08T01:59:15.191Z,11.85
2024-02-08T02:01:47.973Z,11.05
2024-02-08T02:04:17.847Z,8.98
2024-02-08T02:06:49.199Z,9.63
2024-02-08T02:09:25.662Z,10.52
2024-02-08T02:12:03.441Z,9.68
2024-02-08T02:14:32.520Z,11.40
2024-02-08T02:17:14.115Z,10.55
2024-02-08T02:19:42.908Z,12.48
2024-02-08T02:22:14.539Z,10.18
2024-02-08T02:24:43.457Z,12.38
2024-02-08T02:27:13.556Z,11.65
2024-02-08T02:29:45.628Z,9.88
2024-02-08T02:32:16.627Z,8.50
2024-02-08T02:34:48.013Z,7.88
2024-02-08T02:37:19.839Z,6.22
2024-02-08T02:39:48.224Z,7.25
2024-02-08T02:42:16.906Z,7.10
2024-02-08T02:44:47.881Z,7.88
2024-02-08T02:47:21.645Z,7.13
2024-02-08T02:49:49.809Z,6.30
2024-02-08T02:52:19.296Z,7.50
2024-02-08T02:54:47.427Z,6.15
2024-02-08T02:57:16.095Z,8.48
2024-02-08T02:59:44.583Z,8.20
2024-02-08T03:02:12.767Z,7.53
2024-02-08T03:04:41.429Z,9.40
2024-02-08T03:07:11.977Z,7.28
2024-02-08T03:09:43.942Z,9.82
2024-02-08T03:12:13.625Z,8.05
2024-02-08T03:14:58.729Z,7.78
2024-02-08T03:17:27.168Z,11.32
2024-02-08T03:19:55.401Z,10.18
2024-02-08T03:22:23.560Z,7.55
2024-02-08T03:24:53.057Z,10.30
2024-02-08T03:27:22.946Z,11.50
2024-02-08T03:29:55.179Z,7.35
2024-02-08T03:32:24.377Z,8.15
2024-02-08T03:34:54.599Z,9.90
2024-02-08T03:37:22.936Z,9.55
2024-02-08T03:39:52.678Z,8.07
2024-02-08T03:42:20.841Z,8.93
2024-02-08T03:44:49.758Z,8.77
2024-02-08T03:47:18.344Z,9.57
2024-02-08T03:49:52.320Z,8.98
2024-02-08T03:52:21.142Z,9.50
2024-02-08T03:54:49.300Z,7.88
2024-02-08T03:57:20.294Z,11.15
2024-02-08T03:59:50.001Z,10.25
2024-02-08T04:02:22.789Z,12.63
2024-02-08T04:04:55.409Z,12.63
2024-02-08T04:07:35.947Z,8.70
2024-02-08T04:10:20.328Z,9.32
2024-02-08T04:13:07.365Z,9.32
2024-02-08T04:15:53.080Z,9.93
2024-02-08T04:18:38.903Z,9.15
2024-02-08T04:21:24.428Z,9.82
2024-02-08T04:24:09.956Z,11.10
2024-02-08T04:26:55.392Z,13.23
2024-02-08T04:29:42.518Z,11.75
2024-02-08T04:32:28.948Z,10.10
2024-02-08T04:35:17.768Z,11.80
2024-02-08T04:38:06.412Z,10.93
2024-02-08T04:40:52.245Z,11.18
2024-02-08T04:43:37.687Z,14.48
2024-02-08T04:46:24.919Z,14.88
2024-02-08T04:49:10.433Z,13.43
2024-02-08T04:52:07.339Z,14.15
2024-02-08T04:54:35.509Z,15.05
2024-02-08T04:57:04.651Z,12.30
2024-02-08T04:59:32.811Z,10.02
2024-02-08T05:02:12.714Z,12.77
2024-02-08T05:04:44.820Z,15.38
2024-02-08T05:07:13.096Z,12.85
2024-02-08T05:09:41.861Z,16.00
2024-02-08T05:12:12.319Z,11.02
2024-02-08T05:14:40.715Z,11.77
2024-02-08T05:17:11.477Z,12.13
2024-02-08T05:19:44.881Z,14.43
2024-02-08T05:22:23.678Z,16.02
2024-02-08T05:24:51.868Z,15.00
2024-02-08T05:27:23.305Z,11.85
2024-02-08T05:29:51.428Z,12.50
2024-02-08T05:32:23.975Z,16.40
2024-02-08T05:34:52.824Z,12.32
2024-02-08T05:37:26.509Z,16.40
2024-02-08T05:39:54.781Z,12.55
2024-02-08T05:42:25.370Z,21.02
2024-02-08T05:44:55.121Z,15.68
2024-02-08T05:47:27.510Z,17.08
2024-02-08T05:49:55.779Z,15.40
2024-02-08T05:52:27.749Z,16.48
2024-02-08T05:54:56.453Z,17.98
2024-02-08T05:57:25.781Z,18.63
2024-02-08T06:00:01.423Z,20.42
2024-02-08T06:02:31.533Z,23.85
2024-02-08T06:05:10.341Z,23.02
2024-02-08T06:07:39.255Z,17.17
2024-02-08T06:10:15.449Z,15.90
2024-02-08T06:12:53.392Z,13.60
2024-02-08T06:15:27.226Z,12.52
2024-02-08T06:18:05.157Z,14.38
2024-02-08T06:20:41.571Z,13.48
2024-02-08T06:23:24.367Z,10.50
2024-02-08T06:26:11.418Z,11.32
2024-02-08T06:28:48.129Z,9.32
2024-02-08T06:31:19.723Z,10.30
2024-02-08T06:34:04.072Z,13.68
2024-02-08T06:36:35.273Z,10.90
2024-02-08T06:39:21.339Z,23.15
2024-02-08T06:42:08.931Z,16.88
2024-02-08T06:44:54.417Z,18.55
2024-02-08T06:47:52.189Z,13.38
2024-02-08T06:50:46.870Z,20.63
2024-02-08T06:53:34.505Z,13.07
2024-02-08T06:56:21.883Z,14.30
2024-02-08T06:59:07.480Z,13.60
2024-02-08T07:01:54.272Z,14.05
2024-02-08T07:04:40.000Z,16.35
2024-02-08T07:07:27.183Z,15.45
2024-02-08T07:10:12.929Z,14.00
2024-02-08T07:12:58.846Z,16.38
2024-02-08T07:15:44.504Z,10.98
2024-02-08T07:18:30.103Z,15.02
2024-02-08T07:21:16.087Z,12.30
2024-02-08T07:24:02.684Z,13.43
2024-02-08T07:26:48.389Z,10.82
2024-02-08T07:29:33.715Z,13.13
2024-02-08T07:32:19.290Z,11.52
2024-02-08T07:35:04.718Z,13.85
2024-02-08T07:37:37.473Z,12.88
2024-02-08T07:40:25.838Z,11.07
2024-02-08T07:43:18.079Z,9.10
2024-02-08T07:45:47.471Z,7.22
2024-02-08T07:48:29.143Z,6.88
2024-02-08T07:50:59.875Z,8.50
2024-02-08T07:53:36.504Z,10.18
2024-02-08T07:56:24.805Z,10.85
2024-02-08T07:58:57.717Z,9.90
2024-02-08T08:01:31.479Z,10.70
2024-02-08T08:04:02.676Z,8.38
2024-02-08T08:06:38.112Z,7.57
2024-02-08T08:09:19.887Z,8.50
2024-02-08T08:11:50.897Z,9.93
2024-02-08T08:14:36.816Z,12.20
2024-02-08T08:17:18.236Z,16.35
2024-02-08T08:19:46.558Z,16.63
2024-02-08T08:22:41.713Z,13.60
2024-02-08T08:25:29.993Z,17.05
2024-02-08T08:28:13.735Z,14.18
2024-02-08T08:30:50.702Z,14.57
2024-02-08T08:33:38.217Z,14.65
2024-02-08T08:36:27.340Z,14.40
2024-02-08T08:38:55.778Z,12.32
2024-02-08T08:41:25.684Z,19.20
2024-02-08T08:43:56.587Z,19.98
2024-02-08T08:46:25.833Z,21.95
2024-02-08T08:48:56.291Z,17.58
2024-02-08T08:51:32.268Z,19.40
2024-02-08T08:54:15.391Z,19.05
2024-02-08T08:56:43.941Z,15.50
2024-02-08T08:59:13.559Z,18.02
2024-02-08T09:01:43.779Z,16.88
2024-02-08T09:04:23.893Z,16.13
2024-02-08T09:06:52.490Z,15.60
2024-02-08T09:09:39.249Z,15.05
2024-02-08T09:12:09.116Z,18.20
2024-02-08T09:14:49.444Z,12.93
2024-02-08T09:17:26.267Z,13.05
2024-02-08T09:19:56.187Z,13.68
2024-02-08T09:22:24.491Z,15.50
2024-02-08T09:24:53.985Z,15.07
2024-02-08T09:27:28.105Z,13.63
2024-02-08T09:29:58.558Z,14.98
2024-02-08T09:32:40.830Z,15.23
2024-02-08T09:35:15.054Z,15.40
2024-02-08T09:37:47.068Z,16.70
2024-02-08T09:40:42.722Z,15.75
2024-02-08T09:43:20.341Z,17.90
2024-02-08T09:46:02.869Z,12.75
2024-02-08T09:48:38.580Z,11.52
2024-02-08T09:51:14.340Z,14.70
2024-02-08T09:53:53.106Z,16.10
2024-02-08T09:56:36.892Z,13.32
2024-02-08T09:59:11.316Z,11.75
2024-02-08T10:01:45.358Z,13.95
2024-02-08T10:04:19.099Z,14.82
2024-02-08T10:06:58.980Z,11.98
2024-02-08T10:09:41.368Z,13.38
2024-02-08T10:12:20.177Z,12.77
2024-02-08T10:14:55.988Z,11.80
2024-02-08T10:17:27.094Z,15.50
2024-02-08T10:20:11.389Z,18.77
2024-02-08T10:22:54.490Z,12.55
2024-02-08T10:25:41.947Z,13.63
2024-02-08T10:28:10.619Z,13.23
2024-02-08T10:30:42.766Z,12.48
2024-02-08T10:33:16.545Z,17.05
2024-02-08T10:35:44.151Z,19.77
2024-02-08T10:38:26.533Z,18.75
2024-02-08T10:40:57.326Z,15.45
2024-02-08T10:43:26.688Z,15.45
2024-02-08T10:46:03.399Z,13.70
2024-02-08T10:48:33.206Z,22.33
2024-02-08T10:51:03.458Z,18.27
2024-02-08T10:53:45.592Z,16.77
2024-02-08T10:56:18.262Z,12.85
2024-02-08T10:58:56.705Z,15.23
2024-02-08T11:01:39.055Z,16.73
2024-02-08T11:04:19.076Z,13.25
2024-02-08T11:06:56.501Z,13.30
2024-02-08T11:09:28.631Z,12.90
2024-02-08T11:12:04.948Z,14.07
2024-02-08T11:14:42.264Z,13.10
2024-02-08T11:17:21.410Z,13.38
2024-02-08T11:19:57.902Z,14.43
2024-02-08T11:22:37.252Z,11.90
2024-02-08T11:28:18.560Z,13.85
2024-02-08T11:30:55.328Z,9.30
2024-02-08T11:33:33.321Z,7.05
2024-02-08T11:36:14.295Z,7.65
2024-02-08T11:38:47.642Z,7.90
2024-02-08T11:41:19.859Z,7.55
2024-02-08T11:44:04.232Z,8.20
2024-02-08T11:46:39.225Z,7.45
2024-02-08T11:49:15.965Z,7.32
2024-02-08T11:51:46.990Z,5.20
2024-02-08T11:54:35.607Z,6.15
2024-02-08T11:57:14.918Z,6.22
2024-02-08T11:59:47.130Z,5.43
2024-02-08T12:02:19.416Z,7.03
2024-02-08T12:04:53.870Z,6.13
2024-02-08T12:07:23.393Z,4.53
2024-02-08T12:10:01.031Z,5.95
2024-02-08T12:12:31.690Z,5.07
2024-02-08T12:15:03.020Z,4.38
2024-02-08T12:17:32.624Z,5.32
2024-02-08T12:20:02.011Z,5.07
2024-02-08T12:22:32.124Z,4.10
2024-02-08T12:25:01.712Z,4.57
2024-02-08T12:27:31.651Z,4.80
2024-02-08T12:30:02.540Z,3.42
2024-02-08T12:32:32.979Z,4.07
2024-02-08T12:35:14.934Z,5.43
2024-02-08T12:37:47.404Z,5.45
2024-02-08T12:40:20.053Z,6.72
2024-02-08T12:42:49.385Z,5.05
2024-02-08T12:45:20.260Z,5.97
2024-02-08T12:47:53.694Z,5.97
2024-02-08T12:50:27.021Z,5.25
2024-02-08T12:52:59.340Z,5.32
2024-02-08T12:55:31.683Z,4.78
2024-02-08T12:58:03.629Z,4.90
2024-02-08T13:00:35.907Z,5.90
2024-02-08T13:03:08.554Z,4.25
2024-02-08T13:05:41.245Z,5.50
2024-02-08T13:08:11.718Z,4.50
2024-02-08T13:11:05.377Z,4.47
2024-02-08T13:13:37.200Z,4.47
2024-02-08T13:16:11.321Z,5.45
2024-02-08T13:18:40.481Z,4.35
2024-02-08T13:21:09.518Z,4.40
2024-02-08T13:23:39.538Z,5.30
2024-02-08T13:26:13.293Z,3.92
2024-02-08T13:28:44.844Z,5.32
2024-02-08T13:31:19.443Z,4.28
2024-02-08T13:33:48.476Z,6.50
2024-02-08T13:36:17.171Z,5.80
2024-02-08T13:38:45.991Z,5.78
2024-02-08T13:41:14.790Z,5.72
2024-02-08T13:43:47.555Z,7.97
2024-02-08T13:46:17.964Z,6.57
2024-02-08T13:48:46.560Z,8.18
2024-02-08T13:51:18.039Z,6.22
2024-02-08T13:53:46.859Z,6.53
2024-02-08T13:56:15.440Z,8.25
2024-02-08T13:58:44.322Z,10.15
2024-02-08T14:01:13.947Z,8.48
2024-02-08T14:03:46.836Z,11.30
2024-02-08T14:06:24.991Z,16.65
2024-02-08T14:09:16.177Z,13.88
2024-02-08T14:11:53.258Z,13.40
2024-02-08T14:14:25.121Z,12.63
2024-02-08T14:16:57.275Z,10.93
2024-02-08T14:19:35.086Z,11.32
2024-02-08T14:22:07.650Z,9.98
2024-02-08T14:24:40.087Z,11.27
2024-02-08T14:27:08.322Z,13.18
2024-02-08T14:29:39.667Z,11.23
2024-02-08T14:32:16.915Z,8.88
2024-02-08T14:34:54.580Z,7.68
2024-02-08T14:37:23.406Z,11.77
2024-02-08T14:39:51.761Z,9.50
2024-02-08T14:42:26.222Z,8.15
2024-02-08T14:44:55.500Z,8.60
2024-02-08T14:47:26.980Z,9.88
2024-02-08T14:49:58.155Z,9.52
2024-02-08T14:52:29.533Z,7.13
2024-02-08T14:55:10.377Z,6.70
2024-02-08T14:57:43.643Z,7.55
2024-02-08T15:00:42.066Z,6.13
2024-02-08T15:03:11.258Z,5.97
2024-02-08T15:05:50.022Z,5.78
2024-02-08T15:08:37.045Z,7.53
2024-02-08T15:11:10.273Z,11.68
2024-02-08T15:13:47.514Z,10.00
2024-02-08T15:16:24.086Z,7.85
2024-02-08T15:18:55.636Z,10.38
2024-02-08T15:21:27.525Z,7.40
2024-02-08T15:24:16.397Z,7.50
2024-02-08T15:26:51.615Z,8.77
2024-02-08T15:29:35.300Z,8.05
2024-02-08T15:32:12.295Z,7.72
2024-02-08T15:35:00.924Z,10.20
2024-02-08T15:37:33.320Z,6.60
2024-02-08T15:40:18.691Z,8.65
2024-02-08T15:42:50.634Z,8.45
2024-02-08T15:45:22.438Z,10.82
2024-02-08T15:48:12.221Z,9.20
2024-02-08T15:50:47.701Z,7.28
2024-02-08T15:53:21.174Z,9.35
2024-02-08T15:55:51.757Z,8.80
2024-02-08T15:58:27.644Z,8.07
2024-02-08T16:01:14.019Z,8.85
2024-02-08T16:03:54.512Z,9.65
2024-02-08T16:06:41.323Z,6.40
2024-02-08T16:09:26.314Z,9.95
2024-02-08T16:12:14.909Z,8.63
2024-02-08T16:14:44.477Z,9.18
2024-02-08T16:17:27.275Z,11.80
2024-02-08T16:19:57.840Z,10.38
2024-02-08T16:22:26.738Z,11.80
2024-02-08T16:24:58.188Z,10.75
2024-02-08T16:27:29.222Z,11.48
2024-02-08T16:30:08.312Z,10.27
2024-02-08T16:32:40.492Z,11.00
2024-02-08T16:35:34.400Z,12.68
2024-02-08T16:38:10.186Z,8.70
2024-02-08T16:40:45.901Z,10.10
2024-02-08T16:43:15.413Z,11.00
2024-02-08T16:45:49.555Z,10.93
2024-02-08T16:48:24.846Z,11.05
2024-02-08T16:51:00.542Z,9.40
2024-02-08T16:53:35.053Z,9.10
2024-02-08T16:56:11.273Z,9.63
2024-02-08T16:58:51.371Z,10.25
2024-02-08T17:01:29.672Z,10.95
2024-02-08T17:04:18.192Z,12.30
2024-02-08T17:06:55.673Z,9.80
2024-02-08T17:09:26.393Z,12.25
2024-02-08T17:12:01.076Z,11.50
2024-02-08T17:14:37.711Z,12.45
2024-02-08T17:17:23.344Z,11.00
2024-02-08T17:19:59.654Z,11.57
2024-02-08T17:22:50.807Z,13.65
2024-02-08T17:25:26.726Z,15.48
2024-02-08T17:28:15.662Z,12.45
2024-02-08T17:31:01.508Z,13.27
2024-02-08T17:33:31.855Z,13.30
2024-02-08T17:36:05.616Z,11.13
2024-02-08T17:38:40.536Z,13.38
2024-02-08T17:41:15.434Z,13.20
2024-02-08T17:43:51.909Z,15.80
2024-02-08T17:46:24.011Z,14.80
2024-02-08T17:48:55.553Z,13.02
2024-02-08T17:51:32.897Z,10.52
2024-02-08T17:54:08.071Z,12.55
2024-02-08T17:56:42.741Z,12.45
2024-02-08T17:59:17.379Z,10.98
2024-02-08T18:01:57.210Z,13.60
2024-02-08T18:04:31.178Z,13.98
2024-02-08T18:07:09.343Z,11.07
2024-02-08T18:09:41.820Z,11.63
2024-02-08T18:12:14.725Z,11.63
2024-02-08T18:14:44.473Z,9.90
2024-02-08T18:17:20.491Z,9.98
2024-02-08T18:19:50.347Z,8.02
2024-02-08T18:22:20.397Z,12.88
2024-02-08T18:24:49.914Z,12.85
2024-02-08T18:27:23.196Z,9.07
2024-02-08T18:29:54.906Z,7.40
2024-02-08T18:32:23.587Z,7.60
2024-02-08T18:37:27.180Z,8.20
2024-02-08T18:39:56.281Z,9.60
2024-02-08T18:42:28.469Z,7.55
2024-02-08T18:45:02.244Z,9.05
2024-02-08T18:47:34.540Z,5.78
2024-02-08T18:50:07.576Z,7.78
2024-02-08T18:52:37.507Z,7.15
2024-02-08T18:55:10.451Z,8.32
2024-02-08T18:57:38.769Z,6.78
2024-02-08T19:00:14.655Z,6.43
2024-02-08T19:02:43.323Z,7.57
2024-02-08T19:05:16.075Z,6.25
2024-02-08T19:07:46.360Z,8.90
2024-02-08T19:10:14.954Z,11.25
2024-02-08T19:12:43.323Z,6.22
2024-02-08T19:15:13.190Z,6.45
2024-02-08T19:17:45.536Z,8.18
2024-02-08T19:20:26.713Z,8.73
2024-02-08T19:22:58.997Z,12.43
2024-02-08T19:25:30.609Z,9.10
2024-02-08T19:28:00.620Z,6.53
2024-02-08T19:30:31.629Z,9.00
2024-02-08T19:33:01.415Z,6.97
2024-02-08T19:35:33.032Z,6.53
2024-02-08T19:38:05.119Z,6.22
2024-02-08T19:40:34.609Z,5.90
2024-02-08T19:43:04.639Z,5.28
2024-02-08T19:45:34.674Z,4.50
2024-02-08T19:48:04.087Z,9.10
2024-02-08T19:50:34.135Z,3.80
2024-02-08T19:53:07.290Z,4.90
2024-02-08T19:55:40.108Z,2.92
2024-02-08T19:58:09.544Z,3.72
2024-02-08T20:00:39.676Z,4.10
2024-02-08T20:03:17.533Z,6.22
2024-02-08T20:05:48.356Z,3.42
2024-02-08T20:08:17.629Z,4.95
2024-02-08T20:10:47.757Z,4.82
2024-02-08T20:13:19.425Z,4.95
2024-02-08T20:15:49.682Z,5.18
2024-02-08T20:18:19.777Z,4.30
2024-02-08T20:20:53.044Z,6.75
2024-02-08T20:23:23.222Z,6.15
2024-02-08T20:25:55.559Z,8.02
2024-02-08T20:28:24.747Z,8.13
2024-02-08T20:30:55.596Z,7.18
2024-02-08T20:33:24.417Z,8.77
2024-02-08T20:35:54.694Z,9.38
2024-02-08T20:38:25.513Z,10.18
2024-02-08T20:40:53.896Z,10.85
2024-02-08T20:43:23.774Z,10.70
2024-02-08T20:45:58.521Z,8.15
2024-02-08T20:48:27.701Z,7.90
2024-02-08T20:50:56.838Z,10.05
2024-02-08T20:53:25.023Z,10.68
2024-02-08T20:55:56.378Z,11.43
2024-02-08T20:58:26.156Z,13.15
2024-02-08T21:01:00.682Z,15.02
2024-02-08T21:03:28.881Z,13.32
2024-02-08T21:05:59.290Z,10.98
2024-02-08T21:08:28.948Z,13.55
2024-02-08T21:10:58.373Z,11.93
2024-02-08T21:13:27.196Z,13.57
2024-02-08T21:15:58.314Z,12.65
2024-02-08T21:18:29.717Z,15.38
2024-02-08T21:20:58.029Z,11.88
2024-02-08T21:23:26.429Z,10.63
2024-02-08T21:25:54.826Z,12.20
2024-02-08T21:28:26.418Z,11.07
2024-02-08T21:30:57.767Z,9.95
2024-02-08T21:33:28.353Z,11.48
2024-02-08T21:36:04.371Z,12.15
2024-02-08T21:38:36.742Z,10.55
2024-02-08T21:41:06.915Z,11.73
2024-02-08T21:43:39.323Z,12.10
2024-02-08T21:46:12.091Z,18.60
2024-02-08T21:48:42.427Z,16.70
2024-02-08T21:51:13.181Z,17.63
2024-02-08T21:53:41.699Z,21.23
2024-02-08T21:56:44.577Z,14.23
2024-02-08T21:59:19.418Z,15.13
2024-02-08T22:01:49.180Z,24.80
2024-02-08T22:04:18.362Z,25.25
2024-02-08T22:06:49.200Z,11.02
2024-02-08T22:09:19.132Z,14.57
2024-02-08T22:11:48.410Z,17.63
2024-02-08T22:14:18.419Z,19.00
2024-02-08T22:16:48.679Z,13.02
2024-02-08T22:19:17.163Z,15.20
2024-02-08T22:21:46.833Z,18.55
2024-02-08T22:24:15.314Z,14.45
2024-02-08T22:26:47.500Z,14.32
2024-02-08T22:29:16.868Z,13.82
2024-02-08T22:31:47.788Z,14.90
2024-02-08T22:34:17.647Z,16.65
2024-02-08T22:36:45.930Z,12.20
2024-02-08T22:39:15.083Z,16.85
2024-02-08T22:41:50.652Z,18.25
2024-02-08T22:44:18.923Z,20.00
2024-02-08T22:46:47.124Z,18.25
2024-02-08T22:49:17.547Z,20.85
2024-02-08T22:51:48.624Z,21.30
2024-02-08T22:54:18.405Z,18.88
2024-02-08T22:56:50.855Z,18.85
2024-02-08T22:59:21.628Z,24.20
2024-02-08T23:01:54.634Z,20.17
2024-02-08T23:04:31.574Z,21.45
2024-02-08T23:07:01.819Z,21.13
2024-02-08T23:09:30.591Z,23.35
2024-02-08T23:11:59.579Z,21.55
2024-02-08T23:14:31.181Z,30.15
2024-02-08T23:17:04.521Z,25.10
2024-02-08T23:19:35.665Z,22.38
2024-02-08T23:22:06.813Z,29.77
2024-02-08T23:24:41.838Z,33.65
2024-02-08T23:27:10.793Z,20.63
2024-02-08T23:29:39.056Z,20.83
2024-02-08T23:32:11.066Z,27.52
2024-02-08T23:34:42.147Z,23.77
2024-02-08T23:37:12.378Z,22.02
2024-02-08T23:39:41.910Z,31.00
2024-02-08T23:42:16.684Z,27.98
2024-02-08T23:44:48.475Z,28.02
2024-02-08T23:47:18.938Z,22.38
2024-02-08T23:49:48.630Z,20.73
2024-02-08T23:52:16.869Z,20.73
2024-02-08T23:54:45.120Z,26.65
2024-02-08T23:57:15.982Z,27.08
2024-02-08T23:59:48.710Z,23.20
